Time;durP1;ratioP1;P1;durP2;ratioP2;P2;SDS_P1;SDS_P2;PMS_P1;PMS_P2;Temp;Humidity;BMP_temperature;BMP_pressure;BME280_temperature;BME280_humidity;BME280_pressure;Samples;Min_cycle;Max_cycle;Signal;HPM_P1;HPM_P2
2023/05/12 00:03:36;;;;;;;18.45;7.85;;;;;11.30;96056.00;;;;8269823;28;20226;-70
2023/05/12 00:07:43;;;;;;;15.63;7.63;;;;;11.30;96052.00;;;;8285133;28;20202;-71
2023/05/12 00:11:47;;;;;;;19.45;7.82;;;;;11.30;96053.00;;;;8285875;28;20193;-71
2023/05/12 00:15:51;;;;;;;18.70;7.93;;;;;11.30;96055.00;;;;8286316;28;20356;-71
2023/05/12 00:19:56;;;;;;;18.50;8.10;;;;;11.30;96039.00;;;;8278052;28;20221;-71
2023/05/12 00:24:02;;;;;;;23.30;8.18;;;;;11.30;96034.00;;;;8285944;28;20207;-71
2023/05/12 00:28:10;;;;;;;21.38;7.75;;;;;11.30;96042.00;;;;8288189;28;20208;-70
2023/05/12 00:32:18;;;;;;;18.58;8.38;;;;;11.30;96043.00;;;;8286571;28;20733;-71
2023/05/12 00:36:21;;;;;;;22.75;8.07;;;;;11.30;96030.00;;;;8287436;28;20288;-71
2023/05/12 00:40:26;;;;;;;20.23;9.07;;;;;11.30;96025.00;;;;8287951;28;20236;-71
2023/05/12 00:44:30;;;;;;;18.30;8.35;;;;;11.30;96032.00;;;;8287799;28;20229;-73
2023/05/12 00:48:36;;;;;;;24.67;10.02;;;;;11.30;96022.00;;;;8286167;28;20202;-73
2023/05/12 00:52:40;;;;;;;27.27;10.38;;;;;11.30;96034.00;;;;8287817;28;20237;-71
2023/05/12 00:56:44;;;;;;;28.90;10.35;;;;;11.30;96030.00;;;;8283378;28;20214;-71
2023/05/12 01:00:50;;;;;;;24.98;10.43;;;;;11.40;96025.00;;;;8281823;28;20237;-70
2023/05/12 01:04:53;;;;;;;29.63;10.60;;;;;11.40;96040.00;;;;8279836;28;20222;-71
2023/05/12 01:08:59;;;;;;;32.72;11.07;;;;;11.40;96037.00;;;;8279612;28;20268;-70
2023/05/12 01:13:04;;;;;;;35.60;11.40;;;;;11.40;96035.00;;;;8278973;28;20196;-70
2023/05/12 01:17:13;;;;;;;27.42;10.88;;;;;11.50;96032.00;;;;8284031;28;20260;-71
2023/05/12 01:21:17;;;;;;;32.70;11.63;;;;;11.50;96032.00;;;;8284805;28;20291;-70
2023/05/12 01:25:26;;;;;;;26.70;11.13;;;;;11.50;96029.00;;;;8285085;28;20237;-70
2023/05/12 01:29:36;;;;;;;31.73;11.15;;;;;11.60;96030.00;;;;8284942;28;20202;-70
2023/05/12 01:33:40;;;;;;;24.95;10.38;;;;;11.50;96032.00;;;;8281616;28;20249;-70
2023/05/12 01:37:43;;;;;;;28.92;10.20;;;;;11.50;96026.00;;;;8286183;28;20709;-71
2023/05/12 01:41:46;;;;;;;25.95;10.20;;;;;11.50;96025.00;;;;8283274;28;20251;-70
2023/05/12 01:45:50;;;;;;;28.13;11.07;;;;;11.50;96022.00;;;;8281262;28;20190;-70
2023/05/12 01:49:53;;;;;;;29.85;11.05;;;;;11.50;96029.00;;;;8286520;28;20598;-70
2023/05/12 01:54:00;;;;;;;27.58;10.98;;;;;11.50;96034.00;;;;8284610;28;20206;-71
2023/05/12 01:58:03;;;;;;;26.92;11.05;;;;;11.40;96027.00;;;;8282419;28;20206;-70
2023/05/12 02:02:11;;;;;;;18.10;8.88;;;;;11.40;96026.00;;;;8278699;28;20248;-68
2023/05/12 02:06:14;;;;;;;24.45;9.98;;;;;11.40;96027.00;;;;8279580;28;20194;-73
2023/05/12 02:10:19;;;;;;;29.00;10.50;;;;;11.40;96029.00;;;;8289500;28;20212;-73
2023/05/12 02:14:25;;;;;;;31.95;10.98;;;;;11.40;96026.00;;;;8283907;28;20640;-71
2023/05/12 02:18:38;;;;;;;23.10;9.77;;;;;11.40;96028.00;;;;8277378;28;20271;-74
2023/05/12 02:22:44;;;;;;;36.20;12.90;;;;;11.40;96030.00;;;;8281107;28;20204;-73
2023/05/12 02:26:47;;;;;;;36.42;13.27;;;;;11.40;96023.00;;;;8283828;28;20299;-73
2023/05/12 02:30:51;;;;;;;30.70;11.40;;;;;11.40;96020.00;;;;8283392;28;20198;-73
2023/05/12 02:34:59;;;;;;;29.73;11.38;;;;;11.30;96015.00;;;;8284208;28;20212;-70
2023/05/12 02:39:04;;;;;;;33.70;12.20;;;;;11.30;96015.00;;;;8283090;28;20237;-73
2023/05/12 02:43:07;;;;;;;34.10;11.88;;;;;11.30;96014.00;;;;8283079;28;20225;-73
2023/05/12 02:47:10;;;;;;;35.92;13.45;;;;;11.30;96012.00;;;;8282012;28;20196;-73
2023/05/12 02:51:15;;;;;;;38.13;12.73;;;;;11.30;96004.00;;;;8281832;28;20224;-73
2023/05/12 02:55:18;;;;;;;38.90;12.23;;;;;11.30;95998.00;;;;8282132;28;20553;-73
2023/05/12 02:59:26;;;;;;;35.40;12.57;;;;;11.40;96001.00;;;;8285782;28;20238;-71
2023/05/12 03:03:40;;;;;;;33.78;13.57;;;;;11.40;96005.00;;;;8373406;22;20295;-72
2023/05/12 03:07:47;;;;;;;28.98;12.40;;;;;11.40;96006.00;;;;8313562;28;20206;-72
2023/05/12 03:11:52;;;;;;;30.25;12.90;;;;;11.40;96012.00;;;;8320424;28;20247;-71
2023/05/12 03:16:06;;;;;;;31.88;10.25;;;;;11.40;96012.00;;;;8308764;28;21123;-72
2023/05/12 03:20:21;;;;;;;33.88;12.57;;;;;11.40;96018.00;;;;8314553;28;20890;-71
2023/05/12 03:24:26;;;;;;;33.42;12.50;;;;;11.40;96008.00;;;;8320565;28;20250;-72
2023/05/12 03:28:32;;;;;;;33.15;12.00;;;;;11.40;96013.00;;;;8315498;28;20203;-71
2023/05/12 03:32:37;;;;;;;28.80;10.88;;;;;11.30;96012.00;;;;8248516;28;20222;-73
2023/05/12 03:36:46;;;;;;;23.25;10.38;;;;;11.30;96013.00;;;;8248987;28;20240;-72
2023/05/12 03:40:54;;;;;;;28.13;11.40;;;;;11.40;96021.00;;;;8256739;28;20583;-74
2023/05/12 03:44:58;;;;;;;25.48;11.18;;;;;11.40;96011.00;;;;8263007;28;20195;-71
2023/05/12 03:49:03;;;;;;;30.35;12.80;;;;;11.40;96005.00;;;;8245314;28;20207;-72
2023/05/12 03:53:09;;;;;;;29.85;11.38;;;;;11.40;96004.00;;;;8247438;28;20548;-72
2023/05/12 03:57:14;;;;;;;32.88;11.88;;;;;11.40;96003.00;;;;8247729;28;20199;-71
2023/05/12 04:01:17;;;;;;;27.52;10.25;;;;;11.40;96009.00;;;;8244656;28;20230;-70
2023/05/12 04:05:20;;;;;;;24.25;9.93;;;;;11.40;96005.00;;;;8237098;28;20231;-70
2023/05/12 04:09:25;;;;;;;28.15;11.40;;;;;11.40;96009.00;;;;8207670;28;20219;-70
2023/05/12 04:13:36;;;;;;;26.23;10.32;;;;;11.40;96005.00;;;;8219827;28;20272;-70
2023/05/12 04:17:40;;;;;;;31.13;10.93;;;;;11.40;96009.00;;;;8210848;28;20191;-69
2023/05/12 04:21:43;;;;;;;28.50;10.75;;;;;11.40;96014.00;;;;8211430;28;20258;-73
2023/05/12 04:25:51;;;;;;;27.50;10.80;;;;;11.50;96016.00;;;;8203044;28;20254;-71
2023/05/12 04:29:58;;;;;;;27.55;10.15;;;;;11.50;96014.00;;;;8203026;28;20211;-71
2023/05/12 04:34:01;;;;;;;24.65;10.25;;;;;11.50;96024.00;;;;8218841;28;20210;-72
2023/05/12 04:38:05;;;;;;;27.10;10.93;;;;;11.50;96021.00;;;;8236813;28;20207;-71
2023/05/12 04:42:12;;;;;;;29.48;10.65;;;;;11.50;96030.00;;;;8233318;28;20736;-72
2023/05/12 04:46:20;;;;;;;30.73;12.40;;;;;11.50;96037.00;;;;8222120;28;20823;-74
2023/05/12 04:50:29;;;;;;;28.83;10.77;;;;;11.40;96039.00;;;;8234245;28;20239;-73
2023/05/12 04:54:35;;;;;;;27.63;11.00;;;;;11.40;96038.00;;;;8233321;28;20202;-71
2023/05/12 04:58:38;;;;;;;26.95;10.40;;;;;11.30;96045.00;;;;8249825;28;20211;-71
2023/05/12 05:02:44;;;;;;;29.73;11.27;;;;;11.30;96040.00;;;;8236042;28;20283;-69
2023/05/12 05:06:50;;;;;;;27.83;11.40;;;;;11.30;96043.00;;;;8227309;28;20196;-69
2023/05/12 05:10:55;;;;;;;28.27;11.50;;;;;11.20;96042.00;;;;8232302;28;20201;-71
2023/05/12 05:14:58;;;;;;;23.90;10.05;;;;;11.20;96052.00;;;;8237467;28;20930;-71
2023/05/12 05:19:02;;;;;;;27.55;11.48;;;;;11.20;96052.00;;;;8237623;28;20908;-70
2023/05/12 05:23:08;;;;;;;22.65;10.38;;;;;11.20;96054.00;;;;8230609;28;20254;-70
2023/05/12 05:27:14;;;;;;;30.98;11.52;;;;;11.20;96053.00;;;;8235293;28;20551;-70
2023/05/12 05:31:17;;;;;;;40.58;11.95;;;;;11.20;96054.00;;;;8229174;28;20210;-70
2023/05/12 05:35:24;;;;;;;22.60;9.10;;;;;11.30;96065.00;;;;8240047;28;20754;-72
2023/05/12 05:39:29;;;;;;;29.00;11.63;;;;;11.30;96062.00;;;;8232264;28;20287;-72
2023/05/12 05:43:40;;;;;;;26.30;10.10;;;;;11.30;96065.00;;;;8235823;28;20238;-72
2023/05/12 05:47:45;;;;;;;27.73;10.60;;;;;11.40;96070.00;;;;8227470;28;20824;-73
2023/05/12 05:51:50;;;;;;;27.30;10.32;;;;;11.40;96068.00;;;;8231341;28;20209;-73
2023/05/12 05:55:55;;;;;;;22.80;10.00;;;;;11.50;96072.00;;;;8240828;28;20212;-74
2023/05/12 05:59:58;;;;;;;26.48;10.50;;;;;11.60;96071.00;;;;8231316;28;20253;-73
2023/05/12 06:04:01;;;;;;;19.05;8.88;;;;;11.60;96078.00;;;;8240885;28;20223;-73
2023/05/12 06:08:08;;;;;;;28.27;9.52;;;;;11.80;96078.00;;;;8229623;28;20194;-72
2023/05/12 06:12:13;;;;;;;23.52;9.52;;;;;11.80;96088.00;;;;8238197;28;20206;-73
2023/05/12 06:16:17;;;;;;;29.95;10.20;;;;;11.90;96094.00;;;;8230909;28;20198;-72
2023/05/12 06:20:24;;;;;;;21.77;8.80;;;;;11.90;96089.00;;;;8229660;28;20234;-72
2023/05/12 06:24:29;;;;;;;17.75;7.90;;;;;11.90;96098.00;;;;8225527;28;20206;-72
2023/05/12 06:28:32;;;;;;;19.77;8.45;;;;;12.00;96095.00;;;;8232265;28;20535;-72
2023/05/12 06:32:35;;;;;;;18.77;8.70;;;;;12.10;96092.00;;;;8245856;28;20276;-72
2023/05/12 06:36:44;;;;;;;20.63;8.32;;;;;12.10;96096.00;;;;8249216;28;20234;-72
2023/05/12 06:40:49;;;;;;;18.30;8.30;;;;;12.10;96107.00;;;;8229766;28;20499;-71
2023/05/12 06:44:52;;;;;;;13.68;7.25;;;;;12.30;96099.00;;;;8234174;28;20260;-71
2023/05/12 06:48:59;;;;;;;18.75;8.35;;;;;12.30;96110.00;;;;8245925;28;20201;-71
2023/05/12 06:53:02;;;;;;;19.17;7.18;;;;;12.40;96110.00;;;;8247049;28;20202;-72
2023/05/12 06:57:06;;;;;;;15.18;7.38;;;;;12.50;96112.00;;;;8245760;28;20203;-71
2023/05/12 07:01:09;;;;;;;17.05;7.55;;;;;12.40;96106.00;;;;8246527;28;20268;-71
2023/05/12 07:05:14;;;;;;;14.35;6.78;;;;;12.50;96106.00;;;;8240609;28;20237;-74
2023/05/12 07:09:21;;;;;;;12.50;6.50;;;;;12.40;96111.00;;;;8247000;28;20212;-74
2023/05/12 07:13:28;;;;;;;16.17;5.68;;;;;12.30;96118.00;;;;8237243;28;20190;-72
2023/05/12 07:17:32;;;;;;;16.33;6.70;;;;;12.20;96114.00;;;;8242673;28;20201;-72
2023/05/12 07:21:36;;;;;;;17.20;6.75;;;;;12.20;96113.00;;;;8233135;28;20225;-73
2023/05/12 07:25:41;;;;;;;15.00;7.35;;;;;12.20;96118.00;;;;8232929;28;20210;-73
2023/05/12 07:29:48;;;;;;;15.02;6.65;;;;;12.30;96113.00;;;;8244058;28;20214;-71
2023/05/12 07:33:51;;;;;;;11.90;6.47;;;;;12.20;96113.00;;;;8236134;28;20226;-72
2023/05/12 07:37:57;;;;;;;17.13;8.07;;;;;12.30;96114.00;;;;8245072;28;20829;-73
2023/05/12 07:42:02;;;;;;;19.95;7.50;;;;;12.40;96121.00;;;;8235235;28;20680;-72
2023/05/12 07:46:11;;;;;;;14.70;6.82;;;;;12.50;96122.00;;;;8247306;28;20203;-73
2023/05/12 07:50:14;;;;;;;11.25;6.22;;;;;12.60;96125.00;;;;8255581;28;20329;-74
2023/05/12 07:54:19;;;;;;;13.52;6.88;;;;;12.60;96124.00;;;;8236433;28;20222;-77
2023/05/12 07:58:22;;;;;;;12.85;6.80;;;;;12.70;96118.00;;;;8242774;28;20207;-73
2023/05/12 08:02:28;;;;;;;13.65;6.35;;;;;12.70;96135.00;;;;8229439;28;20272;-71
2023/05/12 08:06:31;;;;;;;15.93;6.70;;;;;12.60;96132.00;;;;8246504;28;20279;-72
2023/05/12 08:10:37;;;;;;;12.88;6.15;;;;;12.70;96135.00;;;;8247196;28;20660;-69
2023/05/12 08:14:43;;;;;;;13.85;6.40;;;;;12.70;96127.00;;;;8239368;28;20569;-71
2023/05/12 08:18:48;;;;;;;14.43;6.55;;;;;12.90;96138.00;;;;8245212;28;20256;-71
2023/05/12 08:22:53;;;;;;;6.57;4.57;;;;;12.90;96137.00;;;;8248015;28;20905;-71
2023/05/12 08:26:56;;;;;;;10.02;5.88;;;;;13.10;96134.00;;;;8243928;28;20229;-72
2023/05/12 08:31:01;;;;;;;14.43;5.90;;;;;13.50;96141.00;;;;8243408;28;20194;-69
2023/05/12 08:35:08;;;;;;;9.48;5.47;;;;;13.80;96141.00;;;;8248023;28;20199;-70
2023/05/12 08:39:12;;;;;;;9.52;5.43;;;;;13.90;96141.00;;;;8242506;28;20664;-73
2023/05/12 08:43:38;;;;;;;8.80;4.70;;;;;13.90;96142.00;;;;8247669;28;20239;-72
2023/05/12 08:47:43;;;;;;;10.20;5.05;;;;;13.90;96147.00;;;;8238576;28;20202;-71
2023/05/12 08:51:48;;;;;;;9.88;5.28;;;;;14.00;96143.00;;;;8225467;28;20199;-70
2023/05/12 08:56:05;;;;;;;8.45;4.53;;;;;14.10;96146.00;;;;8227675;28;20203;-71
2023/05/12 09:00:13;;;;;;;9.45;5.10;;;;;14.00;96150.00;;;;8236472;28;20211;-71
2023/05/12 09:04:18;;;;;;;8.23;5.10;;;;;14.20;96154.00;;;;8231193;28;20238;-72
2023/05/12 09:08:23;;;;;;;9.82;4.95;;;;;14.20;96149.00;;;;8224978;28;20468;-71
2023/05/12 09:12:34;;;;;;;7.88;4.40;;;;;14.30;96150.00;;;;8235601;28;20560;-72
2023/05/12 09:16:41;;;;;;;5.68;3.97;;;;;14.30;96159.00;;;;8228713;28;20215;-71
2023/05/12 09:20:44;;;;;;;6.30;4.05;;;;;14.10;96156.00;;;;8235990;28;20210;-73
2023/05/12 09:24:49;;;;;;;12.18;3.97;;;;;14.00;96157.00;;;;8239020;28;20688;-71
2023/05/12 09:29:03;;;;;;;8.85;3.97;;;;;14.10;96158.00;;;;8223567;28;20200;-72
2023/05/12 09:33:19;;;;;;;6.00;4.32;;;;;14.10;96159.00;;;;8226901;28;21342;-76
2023/05/12 09:37:33;;;;;;;7.18;4.80;;;;;14.30;96170.00;;;;8224240;28;20556;-73
2023/05/12 09:41:43;;;;;;;8.77;4.53;;;;;14.30;96158.00;;;;8236826;28;20227;-76
2023/05/12 09:45:48;;;;;;;11.30;4.65;;;;;14.50;96163.00;;;;8242879;28;20209;-75
2023/05/12 09:49:52;;;;;;;9.13;4.57;;;;;14.70;96166.00;;;;8234596;28;20241;-74
2023/05/12 09:53:56;;;;;;;7.18;4.22;;;;;15.00;96169.00;;;;8235954;28;20203;-74
2023/05/12 09:58:07;;;;;;;4.55;4.03;;;;;15.10;96158.00;;;;8232062;28;20195;-71
2023/05/12 10:02:15;;;;;;;7.32;4.53;;;;;15.30;96169.00;;;;8240871;28;20269;-71
2023/05/12 10:06:22;;;;;;;4.75;3.65;;;;;15.30;96164.00;;;;8230232;28;20205;-70
2023/05/12 10:10:28;;;;;;;4.60;4.20;;;;;15.20;96161.00;;;;8231804;28;20211;-70
2023/05/12 10:14:36;;;;;;;6.38;4.20;;;;;15.30;96162.00;;;;8235601;28;20199;-71
2023/05/12 10:18:43;;;;;;;4.22;3.83;;;;;15.50;96169.00;;;;8225799;28;20199;-70
2023/05/12 10:22:48;;;;;;;5.57;4.28;;;;;15.40;96166.00;;;;8230635;28;20262;-68
2023/05/12 10:26:51;;;;;;;4.18;3.78;;;;;15.20;96169.00;;;;8237331;28;20203;-69
2023/05/12 10:30:57;;;;;;;7.97;4.05;;;;;15.10;96164.00;;;;8247668;28;20253;-68
2023/05/12 10:35:11;;;;;;;6.38;4.05;;;;;14.80;96162.00;;;;8250072;28;20796;-69
2023/05/12 10:39:15;;;;;;;5.90;3.90;;;;;14.50;96176.00;;;;8227015;28;20258;-68
2023/05/12 10:43:25;;;;;;;4.70;3.47;;;;;14.20;96181.00;;;;8228518;28;20238;-69
2023/05/12 10:47:38;;;;;;;6.03;3.92;;;;;13.90;96170.00;;;;8230936;28;20844;-70
2023/05/12 10:51:49;;;;;;;5.28;4.30;;;;;13.80;96173.00;;;;8225240;28;20861;-69
2023/05/12 10:55:56;;;;;;;7.97;5.07;;;;;13.90;96172.00;;;;8236842;28;20207;-70
2023/05/12 11:00:02;;;;;;;7.75;5.30;;;;;14.00;96167.00;;;;8230882;28;20253;-68
2023/05/12 11:04:13;;;;;;;12.02;7.28;;;;;14.10;96175.00;;;;8229770;28;20231;-69
2023/05/12 11:08:19;;;;;;;8.68;5.75;;;;;14.20;96169.00;;;;8237410;28;20478;-69
2023/05/12 11:12:27;;;;;;;12.70;6.30;;;;;14.20;96180.00;;;;8238686;28;20211;-69
2023/05/12 11:16:34;;;;;;;8.60;6.10;;;;;14.50;96177.00;;;;8234066;28;20200;-69
2023/05/12 11:20:38;;;;;;;7.93;5.65;;;;;14.50;96172.00;;;;8239095;28;20199;-70
2023/05/12 11:24:42;;;;;;;7.50;5.60;;;;;14.40;96180.00;;;;8240339;28;20237;-70
2023/05/12 11:28:45;;;;;;;9.73;5.50;;;;;14.30;96178.00;;;;8254931;28;20266;-70
2023/05/12 11:32:48;;;;;;;9.10;5.80;;;;;14.00;96180.00;;;;8243528;28;20249;-69
2023/05/12 11:36:54;;;;;;;8.15;5.20;;;;;13.70;96182.00;;;;8234563;28;20310;-68
2023/05/12 11:40:58;;;;;;;6.90;5.38;;;;;13.50;96199.00;;;;8244450;28;20727;-72
2023/05/12 11:45:02;;;;;;;5.65;4.30;;;;;13.30;96196.00;;;;8240770;28;20268;-72
2023/05/12 11:49:11;;;;;;;6.88;4.07;;;;;13.10;96193.00;;;;8253561;28;20199;-78
2023/05/12 11:53:22;;;;;;;6.05;4.60;;;;;13.00;96198.00;;;;8236163;28;20211;-70
2023/05/12 11:57:31;;;;;;;10.93;5.28;;;;;13.10;96194.00;;;;8236582;28;20202;-71
2023/05/12 12:01:45;;;;;;;10.00;5.20;;;;;13.20;96199.00;;;;8243257;28;20207;-72
2023/05/12 12:05:58;;;;;;;10.63;5.88;;;;;13.30;96201.00;;;;8234489;28;20242;-71
2023/05/12 12:10:12;;;;;;;6.90;4.97;;;;;13.40;96200.00;;;;8249160;28;20199;-70
2023/05/12 12:14:17;;;;;;;8.85;5.57;;;;;13.60;96206.00;;;;8227113;28;20203;-71
2023/05/12 12:18:22;;;;;;;8.93;4.95;;;;;13.80;96215.00;;;;8226206;28;20346;-70
2023/05/12 12:22:25;;;;;;;9.60;5.63;;;;;13.80;96207.00;;;;8239513;28;20239;-69
2023/05/12 12:26:31;;;;;;;7.60;4.80;;;;;13.90;96217.00;;;;8238401;28;20207;-71
2023/05/12 12:30:34;;;;;;;5.15;3.92;;;;;13.80;96222.00;;;;8246055;28;20199;-70
2023/05/12 12:34:43;;;;;;;8.25;4.50;;;;;13.70;96212.00;;;;8239774;28;20250;-70
2023/05/12 12:38:46;;;;;;;4.28;3.78;;;;;13.50;96213.00;;;;8247394;28;20203;-71
2023/05/12 12:42:51;;;;;;;11.65;6.22;;;;;13.50;96210.00;;;;8241207;28;20747;-71
2023/05/12 12:47:03;;;;;;;10.10;6.05;;;;;13.70;96213.00;;;;8230470;28;20195;-68
2023/05/12 12:51:10;;;;;;;5.80;4.15;;;;;13.70;96232.00;;;;8242695;28;20254;-74
2023/05/12 12:55:17;;;;;;;8.55;5.05;;;;;13.60;96237.00;;;;8240109;28;20874;-71
2023/05/12 12:59:25;;;;;;;13.65;5.72;;;;;13.50;96222.00;;;;8238917;28;20200;-72
2023/05/12 13:03:28;;;;;;;8.32;5.60;;;;;13.50;96228.00;;;;8242846;28;20555;-74
2023/05/12 13:07:32;;;;;;;6.90;4.60;;;;;13.40;96213.00;;;;8230247;28;20254;-74
2023/05/12 13:11:38;;;;;;;7.00;4.88;;;;;13.40;96215.00;;;;8233103;28;20363;-77
2023/05/12 13:15:45;;;;;;;10.57;5.32;;;;;13.50;96229.00;;;;8241099;28;20215;-75
2023/05/12 13:19:51;;;;;;;8.27;4.90;;;;;13.60;96221.00;;;;8237598;28;20230;-73
2023/05/12 13:23:56;;;;;;;11.60;5.30;;;;;13.50;96219.00;;;;8236311;28;20734;-73
2023/05/12 13:27:59;;;;;;;7.57;4.55;;;;;13.50;96214.00;;;;8239158;28;20191;-74
2023/05/12 13:32:04;;;;;;;9.82;4.75;;;;;13.50;96217.00;;;;8233169;28;20250;-74
2023/05/12 13:36:10;;;;;;;4.47;3.38;;;;;13.40;96216.00;;;;8234812;28;20208;-76
2023/05/12 13:40:13;;;;;;;7.40;4.32;;;;;13.40;96228.00;;;;8231817;28;20222;-73
2023/05/12 13:44:16;;;;;;;6.05;3.75;;;;;13.40;96222.00;;;;8239340;28;20229;-74
2023/05/12 13:48:22;;;;;;;9.15;4.30;;;;;13.30;96235.00;;;;8238616;28;20202;-72
2023/05/12 13:52:25;;;;;;;7.43;4.43;;;;;13.30;96228.00;;;;8235785;28;20257;-73
2023/05/12 13:56:28;;;;;;;7.22;4.45;;;;;13.30;96230.00;;;;8223755;28;20201;-74
2023/05/12 14:00:31;;;;;;;8.90;5.60;;;;;13.40;96231.00;;;;8232454;28;20612;-73
2023/05/12 14:04:38;;;;;;;10.60;6.40;;;;;13.40;96229.00;;;;8235385;28;20652;-74
2023/05/12 14:08:41;;;;;;;4.93;4.35;;;;;13.50;96236.00;;;;8233046;28;20370;-73
2023/05/12 14:12:45;;;;;;;5.05;4.47;;;;;13.60;96240.00;;;;8233789;28;20235;-74
2023/05/12 14:16:48;;;;;;;5.22;4.18;;;;;13.70;96247.00;;;;8229888;28;20206;-74
2023/05/12 14:20:53;;;;;;;6.75;3.97;;;;;13.70;96241.00;;;;8239325;28;20213;-73
2023/05/12 14:24:56;;;;;;;9.27;5.28;;;;;13.70;96241.00;;;;8241405;28;20226;-76
2023/05/12 14:28:59;;;;;;;6.15;5.35;;;;;13.80;96245.00;;;;8237228;28;20204;-73
2023/05/12 14:33:03;;;;;;;9.13;5.75;;;;;13.80;96248.00;;;;8243043;28;20195;-74
2023/05/12 14:37:11;;;;;;;8.38;5.55;;;;;13.70;96236.00;;;;8234631;28;20237;-70
2023/05/12 14:41:16;;;;;;;8.70;5.15;;;;;13.50;96245.00;;;;8232307;28;20199;-76
2023/05/12 14:45:19;;;;;;;7.38;5.13;;;;;13.30;96252.00;;;;8230237;28;20794;-75
2023/05/12 14:49:24;;;;;;;9.45;5.75;;;;;13.30;96252.00;;;;8239693;28;20210;-74
2023/05/12 14:53:29;;;;;;;13.75;6.65;;;;;13.20;96244.00;;;;8245014;28;20269;-74
2023/05/12 14:57:36;;;;;;;7.90;5.20;;;;;13.20;96253.00;;;;8247102;28;20199;-63
2023/05/12 15:01:39;;;;;;;12.57;6.60;;;;;13.20;96255.00;;;;8237602;28;20202;-70
2023/05/12 15:05:47;;;;;;;10.35;6.43;;;;;13.20;96249.00;;;;8242781;28;20249;-68
2023/05/12 15:10:10;;;;;;;8.90;5.70;;;;;13.20;96253.00;;;;8234125;28;20356;-70
2023/05/12 15:14:15;;;;;;;8.40;6.10;;;;;13.30;96253.00;;;;8245199;28;20198;-67
2023/05/12 15:18:18;;;;;;;7.28;5.22;;;;;13.40;96263.00;;;;8233460;28;20234;-72
2023/05/12 15:22:25;;;;;;;8.35;5.90;;;;;13.50;96265.00;;;;8233329;28;20295;-69
2023/05/12 15:26:32;;;;;;;7.03;5.45;;;;;13.60;96251.00;;;;8237698;28;20288;-72
2023/05/12 15:30:41;;;;;;;10.35;5.60;;;;;13.70;96257.00;;;;8232622;28;20641;-73
2023/05/12 15:34:45;;;;;;;9.77;5.38;;;;;13.80;96258.00;;;;8238116;28;20239;-70
2023/05/12 15:38:49;;;;;;;10.25;5.68;;;;;14.00;96264.00;;;;8241228;28;20210;-71
2023/05/12 15:42:54;;;;;;;5.78;5.03;;;;;14.10;96255.00;;;;8243379;28;20595;-71
2023/05/12 15:46:57;;;;;;;6.72;4.07;;;;;14.20;96261.00;;;;8237210;28;20206;-67
2023/05/12 15:51:02;;;;;;;8.75;5.40;;;;;14.30;96256.00;;;;8241279;28;20283;-74
2023/05/12 15:55:06;;;;;;;10.35;6.15;;;;;14.50;96254.00;;;;8235176;28;20200;-74
2023/05/12 15:59:11;;;;;;;9.93;5.20;;;;;14.50;96258.00;;;;8230714;28;20238;-74
2023/05/12 16:03:17;;;;;;;6.53;4.88;;;;;14.60;96259.00;;;;8231613;28;20234;-72
2023/05/12 16:07:27;;;;;;;6.72;4.80;;;;;14.60;96252.00;;;;8233648;28;20287;-72
2023/05/12 16:11:30;;;;;;;8.52;4.45;;;;;14.60;96250.00;;;;8242454;28;20648;-73
2023/05/12 16:15:35;;;;;;;7.43;3.88;;;;;14.70;96246.00;;;;8241266;28;20334;-75
2023/05/12 16:19:38;;;;;;;4.05;3.60;;;;;14.80;96244.00;;;;8233833;28;20226;-75
2023/05/12 16:23:44;;;;;;;4.68;3.70;;;;;14.90;96251.00;;;;8237424;28;20310;-74
2023/05/12 16:27:47;;;;;;;3.80;3.50;;;;;15.00;96237.00;;;;8234306;28;20203;-74
2023/05/12 16:31:52;;;;;;;3.72;3.42;;;;;15.10;96227.00;;;;8241125;28;20291;-74
2023/05/12 16:36:01;;;;;;;6.53;3.75;;;;;15.20;96234.00;;;;8228624;28;20211;-75
2023/05/12 16:40:06;;;;;;;6.82;3.50;;;;;15.20;96236.00;;;;8234929;28;20285;-73
2023/05/12 16:44:12;;;;;;;3.70;3.22;;;;;15.30;96238.00;;;;8233836;28;20227;-74
2023/05/12 16:48:17;;;;;;;3.17;2.83;;;;;15.40;96230.00;;;;8229085;28;20209;-76
2023/05/12 16:52:21;;;;;;;3.47;2.60;;;;;15.30;96222.00;;;;8237946;28;20257;-72
2023/05/12 16:56:27;;;;;;;3.10;2.90;;;;;15.40;96221.00;;;;8237350;28;20203;-71
2023/05/12 17:00:35;;;;;;;2.88;2.53;;;;;15.60;96230.00;;;;8243611;28;20677;-72
2023/05/12 17:04:39;;;;;;;3.08;2.75;;;;;15.70;96235.00;;;;8239212;28;20227;-72
2023/05/12 17:08:45;;;;;;;4.20;2.95;;;;;15.70;96233.00;;;;8228327;28;20211;-73
2023/05/12 17:12:53;;;;;;;3.40;2.72;;;;;15.60;96235.00;;;;8232248;28;20196;-72
2023/05/12 17:16:58;;;;;;;3.13;2.60;;;;;15.50;96234.00;;;;8244504;28;20199;-70
2023/05/12 17:21:03;;;;;;;2.63;2.42;;;;;15.20;96237.00;;;;8227686;28;20203;-74
2023/05/12 17:25:07;;;;;;;2.45;2.30;;;;;15.00;96235.00;;;;8234793;28;20223;-73
2023/05/12 17:29:10;;;;;;;4.88;2.00;;;;;14.90;96239.00;;;;8246185;28;20234;-73
2023/05/12 17:33:22;;;;;;;10.00;2.40;;;;;14.80;96234.00;;;;8248715;28;20208;-72
2023/05/12 17:37:29;;;;;;;2.42;2.13;;;;;15.10;96240.00;;;;8233984;28;20211;-73
2023/05/12 17:41:32;;;;;;;2.03;1.92;;;;;15.70;96247.00;;;;8236026;28;20846;-73
2023/05/12 17:45:35;;;;;;;4.43;2.80;;;;;15.50;96248.00;;;;8237632;28;20728;-70
2023/05/12 17:49:40;;;;;;;2.33;2.22;;;;;15.60;96250.00;;;;8227993;28;20266;-73
2023/05/12 17:53:46;;;;;;;2.38;2.10;;;;;15.50;96260.00;;;;8237285;28;20254;-72
2023/05/12 17:57:49;;;;;;;2.78;2.00;;;;;15.20;96262.00;;;;8214409;28;20210;-69
2023/05/12 18:01:55;;;;;;;2.13;2.00;;;;;14.80;96274.00;;;;8225289;28;21249;-68
2023/05/12 18:05:58;;;;;;;2.60;2.35;;;;;14.40;96267.00;;;;8235086;28;20310;-70
2023/05/12 18:10:06;;;;;;;1.83;1.73;;;;;14.20;96275.00;;;;8232359;28;20207;-72
2023/05/12 18:14:11;;;;;;;1.98;1.90;;;;;14.00;96271.00;;;;8226722;28;20211;-73
2023/05/12 18:18:14;;;;;;;2.10;2.00;;;;;13.90;96283.00;;;;8227647;28;20265;-72
2023/05/12 18:22:17;;;;;;;3.88;2.10;;;;;13.80;96283.00;;;;8223042;28;20233;-72
2023/05/12 18:26:25;;;;;;;3.22;2.00;;;;;13.70;96278.00;;;;8231624;28;20293;-70
2023/05/12 18:30:31;;;;;;;2.65;2.45;;;;;13.50;96284.00;;;;8234156;28;20275;-73
2023/05/12 18:34:35;;;;;;;2.08;1.90;;;;;13.40;96282.00;;;;8227388;28;20194;-72
2023/05/12 18:38:43;;;;;;;2.03;1.92;;;;;13.40;96292.00;;;;8228598;28;20209;-72
2023/05/12 18:42:54;;;;;;;4.43;2.30;;;;;13.30;96302.00;;;;8234902;28;20200;-73
2023/05/12 18:46:57;;;;;;;2.25;2.10;;;;;13.20;96298.00;;;;8235955;28;20801;-73
2023/05/12 18:51:03;;;;;;;1.90;1.70;;;;;13.10;96300.00;;;;8236515;28;20206;-73
2023/05/12 18:55:08;;;;;;;2.00;1.88;;;;;13.00;96306.00;;;;8236121;28;20546;-73
2023/05/12 18:59:12;;;;;;;2.00;1.75;;;;;12.90;96314.00;;;;8230986;28;20204;-74
2023/05/12 19:03:19;;;;;;;3.88;2.35;;;;;12.80;96307.00;;;;8226393;28;20235;-73
2023/05/12 19:07:22;;;;;;;2.05;1.95;;;;;12.80;96319.00;;;;8234219;28;20585;-74
2023/05/12 19:11:26;;;;;;;2.50;2.30;;;;;12.90;96320.00;;;;8232879;28;20258;-74
2023/05/12 19:15:30;;;;;;;2.85;1.80;;;;;12.90;96330.00;;;;8229181;28;20747;-74
2023/05/12 19:19:33;;;;;;;1.88;1.75;;;;;12.90;96328.00;;;;8241985;28;20211;-72
2023/05/12 19:23:36;;;;;;;5.60;2.10;;;;;12.80;96335.00;;;;8218172;28;20214;-73
2023/05/12 19:27:44;;;;;;;4.65;1.77;;;;;12.80;96332.00;;;;8231579;28;20230;-73
2023/05/12 19:31:59;;;;;;;1.92;1.83;;;;;12.70;96334.00;;;;8225311;28;20203;-76
2023/05/12 19:36:02;;;;;;;2.00;1.90;;;;;12.70;96350.00;;;;8238064;28;20203;-75
2023/05/12 19:40:09;;;;;;;2.15;1.85;;;;;12.70;96336.00;;;;8238127;28;20743;-76
2023/05/12 19:44:12;;;;;;;3.17;2.30;;;;;12.70;96340.00;;;;8234508;28;20262;-76
2023/05/12 19:48:16;;;;;;;2.28;2.17;;;;;12.70;96333.00;;;;8229066;28;20223;-72
2023/05/12 19:52:23;;;;;;;3.25;2.20;;;;;12.60;96334.00;;;;8231602;28;20222;-76
2023/05/12 19:56:29;;;;;;;2.67;2.47;;;;;12.50;96341.00;;;;8221914;28;20298;-74
2023/05/12 20:00:32;;;;;;;2.55;2.38;;;;;12.30;96346.00;;;;8228934;28;20238;-76
2023/05/12 20:04:37;;;;;;;2.70;2.50;;;;;12.20;96337.00;;;;8228925;28;20239;-75
2023/05/12 20:08:43;;;;;;;4.20;2.50;;;;;12.00;96328.00;;;;8232933;28;20795;-76
2023/05/12 20:12:48;;;;;;;2.50;2.30;;;;;11.90;96319.00;;;;8229112;28;20747;-76
2023/05/12 20:16:51;;;;;;;3.30;3.00;;;;;11.80;96323.00;;;;8236680;28;20238;-74
2023/05/12 20:20:56;;;;;;;3.72;2.80;;;;;11.80;96326.00;;;;8235428;28;20203;-75